sensor_id;sensor_type;location;lat;lon;timestamp;pressure;altitude;pressure_sealevel;temperature;humidity
69971;BME280;57301;50.328;8.542;2023-06-19T00:01:27;98023.56;;;18.32;94.43
69971;BME280;57301;50.328;8.542;2023-06-19T00:03:53;98032.50;;;18.33;94.27
69971;BME280;57301;50.328;8.542;2023-06-19T00:06:20;98024.22;;;18.27;94.65
69971;BME280;57301;50.328;8.542;2023-06-19T00:08:46;98015.28;;;18.27;95.08
69971;BME280;57301;50.328;8.542;2023-06-19T00:11:13;98018.03;;;18.20;95.66
69971;BME280;57301;50.328;8.542;2023-06-19T00:13:39;98009.09;;;18.20;95.58
69971;BME280;57301;50.328;8.542;2023-06-19T00:16:06;98008.56;;;18.05;96.86
69971;BME280;57301;50.328;8.542;2023-06-19T00:18:32;97998.56;;;18.12;96.06
69971;BME280;57301;50.328;8.542;2023-06-19T00:21:07;98002.16;;;17.92;96.85
69971;BME280;57301;50.328;8.542;2023-06-19T00:23:34;97999.91;;;17.83;97.11
69971;BME280;57301;50.328;8.542;2023-06-19T00:26:03;97992.25;;;17.73;96.93
69971;BME280;57301;50.328;8.542;2023-06-19T00:28:30;97991.84;;;17.76;96.74
69971;BME280;57301;50.328;8.542;2023-06-19T00:30:57;97993.25;;;17.79;96.17
69971;BME280;57301;50.328;8.542;2023-06-19T00:33:23;97990.16;;;17.68;97.19
69971;BME280;57301;50.328;8.542;2023-06-19T00:35:51;97987.50;;;17.62;97.64
69971;BME280;57301;50.328;8.542;2023-06-19T00:38:17;97978.56;;;17.68;96.85
69971;BME280;57301;50.328;8.542;2023-06-19T00:40:44;97973.81;;;17.57;97.46
69971;BME280;57301;50.328;8.542;2023-06-19T00:43:10;97980.88;;;17.51;98.52
69971;BME280;57301;50.328;8.542;2023-06-19T00:45:38;97978.38;;;17.43;98.89
69971;BME280;57301;50.328;8.542;2023-06-19T00:48:05;97976.13;;;17.33;99.38
69971;BME280;57301;50.328;8.542;2023-06-19T00:50:32;97967.19;;;17.39;98.88
69971;BME280;57301;50.328;8.542;2023-06-19T00:53:00;97985.63;;;17.42;98.55
69971;BME280;57301;50.328;8.542;2023-06-19T00:55:30;97980.44;;;17.48;97.48
69971;BME280;57301;50.328;8.542;2023-06-19T00:58:00;97981.69;;;17.52;97.13
69971;BME280;57301;50.328;8.542;2023-06-19T01:00:27;97989.16;;;17.36;98.21
69971;BME280;57301;50.328;8.542;2023-06-19T01:02:53;97985.03;;;17.34;98.24
69971;BME280;57301;50.328;8.542;2023-06-19T01:05:20;97986.50;;;17.16;98.69
69971;BME280;57301;50.328;8.542;2023-06-19T01:10:52;97985.91;;;17.01;98.99
69971;BME280;57301;50.328;8.542;2023-06-19T01:13:27;97987.94;;;16.92;99.67
69971;BME280;57301;50.328;8.542;2023-06-19T01:15:58;97985.06;;;16.94;99.35
69971;BME280;57301;50.328;8.542;2023-06-19T01:18:25;97988.38;;;16.96;99.18
69971;BME280;57301;50.328;8.542;2023-06-19T01:20:53;97992.94;;;16.82;99.39
69971;BME280;57301;50.328;8.542;2023-06-19T01:23:19;97987.13;;;16.72;99.73
69971;BME280;57301;50.328;8.542;2023-06-19T01:25:46;97990.84;;;16.71;99.88
69971;BME280;57301;50.328;8.542;2023-06-19T01:28:12;97982.09;;;16.69;99.67
69971;BME280;57301;50.328;8.542;2023-06-19T01:30:41;97982.50;;;16.59;99.91
69971;BME280;57301;50.328;8.542;2023-06-19T01:33:24;97969.88;;;16.66;99.77
69971;BME280;57301;50.328;8.542;2023-06-19T01:35:52;97971.75;;;16.59;100.00
69971;BME280;57301;50.328;8.542;2023-06-19T01:38:20;97977.38;;;16.78;99.37
69971;BME280;57301;50.328;8.542;2023-06-19T01:40:48;97986.63;;;16.62;100.00
69971;BME280;57301;50.328;8.542;2023-06-19T01:43:18;97986.22;;;16.45;100.00
69971;BME280;57301;50.328;8.542;2023-06-19T01:45:45;97988.13;;;16.64;100.00
69971;BME280;57301;50.328;8.542;2023-06-19T01:48:13;97987.13;;;16.72;100.00
69971;BME280;57301;50.328;8.542;2023-06-19T01:50:50;97989.53;;;16.60;100.00
69971;BME280;57301;50.328;8.542;2023-06-19T01:53:17;97990.38;;;16.61;100.00
69971;BME280;57301;50.328;8.542;2023-06-19T01:55:43;97994.59;;;16.83;100.00
69971;BME280;57301;50.328;8.542;2023-06-19T01:58:10;97990.63;;;16.79;100.00
69971;BME280;57301;50.328;8.542;2023-06-19T02:00:36;97992.06;;;16.75;100.00
69971;BME280;57301;50.328;8.542;2023-06-19T02:03:04;97982.97;;;16.76;99.65
69971;BME280;57301;50.328;8.542;2023-06-19T02:05:31;97986.91;;;16.80;99.30
69971;BME280;57301;50.328;8.542;2023-06-19T02:07:57;97994.38;;;16.78;98.68
69971;BME280;57301;50.328;8.542;2023-06-19T02:10:24;97991.06;;;16.76;98.22
69971;BME280;57301;50.328;8.542;2023-06-19T02:12:51;97983.59;;;16.91;97.19
69971;BME280;57301;50.328;8.542;2023-06-19T02:15:17;97990.25;;;17.02;96.86
69971;BME280;57301;50.328;8.542;2023-06-19T02:17:44;97990.84;;;17.11;96.88
69971;BME280;57301;50.328;8.542;2023-06-19T02:20:11;98009.50;;;17.12;96.97
69971;BME280;57301;50.328;8.542;2023-06-19T02:22:38;97998.53;;;17.07;97.35
69971;BME280;57301;50.328;8.542;2023-06-19T02:25:06;98002.47;;;16.91;98.42
69971;BME280;57301;50.328;8.542;2023-06-19T02:27:32;97997.88;;;16.79;98.56
69971;BME280;57301;50.328;8.542;2023-06-19T02:29:59;98000.31;;;16.67;98.84
69971;BME280;57301;50.328;8.542;2023-06-19T02:32:25;98003.44;;;16.57;99.37
69971;BME280;57301;50.328;8.542;2023-06-19T02:34:52;98002.84;;;16.75;98.29
69971;BME280;57301;50.328;8.542;2023-06-19T02:37:19;98010.75;;;16.77;98.17
69971;BME280;57301;50.328;8.542;2023-06-19T02:39:45;97986.63;;;16.62;99.21
69971;BME280;57301;50.328;8.542;2023-06-19T02:42:12;98013.16;;;16.65;99.99
69971;BME280;57301;50.328;8.542;2023-06-19T02:44:38;98001.75;;;16.63;99.41
69971;BME280;57301;50.328;8.542;2023-06-19T02:47:05;98005.25;;;16.50;99.92
69971;BME280;57301;50.328;8.542;2023-06-19T02:49:32;98005.50;;;16.69;98.64
69971;BME280;57301;50.328;8.542;2023-06-19T02:51:58;98012.78;;;16.75;97.91
69971;BME280;57301;50.328;8.542;2023-06-19T02:54:25;98007.84;;;16.78;97.95
69971;BME280;57301;50.328;8.542;2023-06-19T02:56:51;98012.59;;;16.76;98.01
69971;BME280;57301;50.328;8.542;2023-06-19T02:59:17;98018.00;;;16.76;98.40
69971;BME280;57301;50.328;8.542;2023-06-19T03:01:44;98018.81;;;16.77;98.59
69971;BME280;57301;50.328;8.542;2023-06-19T03:04:11;98021.53;;;16.90;97.21
69971;BME280;57301;50.328;8.542;2023-06-19T03:06:38;98022.75;;;16.87;96.57
69971;BME280;57301;50.328;8.542;2023-06-19T03:09:07;98024.81;;;16.92;96.25
69971;BME280;57301;50.328;8.542;2023-06-19T03:11:41;98031.03;;;16.92;97.06
69971;BME280;57301;50.328;8.542;2023-06-19T03:14:07;98027.75;;;17.10;95.69
69971;BME280;57301;50.328;8.542;2023-06-19T03:16:35;98029.59;;;17.10;95.58
69971;BME280;57301;50.328;8.542;2023-06-19T03:19:02;98020.91;;;17.01;96.48
69971;BME280;57301;50.328;8.542;2023-06-19T03:21:28;98030.44;;;16.84;97.29
69971;BME280;57301;50.328;8.542;2023-06-19T03:23:55;98024.81;;;16.85;97.48
69971;BME280;57301;50.328;8.542;2023-06-19T03:26:22;98028.34;;;16.92;96.17
69971;BME280;57301;50.328;8.542;2023-06-19T03:28:48;98038.94;;;16.94;96.71
69971;BME280;57301;50.328;8.542;2023-06-19T03:31:15;98035.22;;;16.95;96.55
69971;BME280;57301;50.328;8.542;2023-06-19T03:33:41;98040.38;;;17.03;96.33
69971;BME280;57301;50.328;8.542;2023-06-19T03:36:08;98043.91;;;16.90;97.31
69971;BME280;57301;50.328;8.542;2023-06-19T03:38:35;98038.28;;;16.92;97.71
69971;BME280;57301;50.328;8.542;2023-06-19T03:41:01;98057.16;;;16.92;97.98
69971;BME280;57301;50.328;8.542;2023-06-19T03:43:28;98048.69;;;16.95;97.65
69971;BME280;57301;50.328;8.542;2023-06-19T03:45:54;98049.91;;;16.92;98.17
69971;BME280;57301;50.328;8.542;2023-06-19T03:48:21;98057.97;;;16.92;97.34
69971;BME280;57301;50.328;8.542;2023-06-19T03:50:47;98054.88;;;16.96;96.60
69971;BME280;57301;50.328;8.542;2023-06-19T03:53:14;98055.50;;;16.98;96.14
69971;BME280;57301;50.328;8.542;2023-06-19T03:55:40;98059.25;;;16.97;96.47
69971;BME280;57301;50.328;8.542;2023-06-19T03:58:07;98061.94;;;17.10;95.44
69971;BME280;57301;50.328;8.542;2023-06-19T04:00:33;98062.56;;;17.12;95.62
69971;BME280;57301;50.328;8.542;2023-06-19T04:03:00;98067.94;;;17.18;95.87
69971;BME280;57301;50.328;8.542;2023-06-19T04:05:26;98065.47;;;17.24;95.42
69971;BME280;57301;50.328;8.542;2023-06-19T04:07:53;98071.50;;;17.19;95.96
69971;BME280;57301;50.328;8.542;2023-06-19T04:10:19;98066.09;;;17.19;96.26
69971;BME280;57301;50.328;8.542;2023-06-19T04:12:47;98078.31;;;17.22;95.89
69971;BME280;57301;50.328;8.542;2023-06-19T04:15:14;98080.41;;;17.19;96.02
69971;BME280;57301;50.328;8.542;2023-06-19T04:17:40;98081.03;;;17.22;96.52
69971;BME280;57301;50.328;8.542;2023-06-19T04:20:07;98084.34;;;17.24;96.65
69971;BME280;57301;50.328;8.542;2023-06-19T04:22:38;98092.03;;;17.27;96.58
69971;BME280;57301;50.328;8.542;2023-06-19T04:25:06;98088.06;;;17.36;96.08
69971;BME280;57301;50.328;8.542;2023-06-19T04:27:33;98087.06;;;17.43;95.60
69971;BME280;57301;50.328;8.542;2023-06-19T04:30:01;98094.09;;;17.44;95.33
69971;BME280;57301;50.328;8.542;2023-06-19T04:32:28;98096.16;;;17.42;96.19
69971;BME280;57301;50.328;8.542;2023-06-19T04:34:55;98097.00;;;17.50;95.52
69971;BME280;57301;50.328;8.542;2023-06-19T04:37:22;98105.72;;;17.52;95.58
69971;BME280;57301;50.328;8.542;2023-06-19T04:39:48;98114.84;;;17.57;95.07
69971;BME280;57301;50.328;8.542;2023-06-19T04:42:16;98124.38;;;17.73;93.77
69971;BME280;57301;50.328;8.542;2023-06-19T04:44:47;98130.81;;;17.79;93.33
69971;BME280;57301;50.328;8.542;2023-06-19T04:47:16;98136.41;;;17.84;92.21
69971;BME280;57301;50.328;8.542;2023-06-19T04:49:43;98130.13;;;18.16;87.56
69971;BME280;57301;50.328;8.542;2023-06-19T04:52:10;98134.22;;;18.39;82.89
69971;BME280;57301;50.328;8.542;2023-06-19T04:54:37;98127.91;;;18.65;81.80
69971;BME280;57301;50.328;8.542;2023-06-19T04:57:04;98130.31;;;18.93;81.35
69971;BME280;57301;50.328;8.542;2023-06-19T04:59:31;98129.59;;;19.11;80.71
69971;BME280;57301;50.328;8.542;2023-06-19T05:01:58;98135.31;;;19.27;80.20
69971;BME280;57301;50.328;8.542;2023-06-19T05:04:25;98133.44;;;19.28;79.22
69971;BME280;57301;50.328;8.542;2023-06-19T05:06:52;98124.66;;;19.57;74.05
69971;BME280;57301;50.328;8.542;2023-06-19T05:09:18;98125.69;;;19.88;75.33
69971;BME280;57301;50.328;8.542;2023-06-19T05:11:46;98146.78;;;20.04;76.79
69971;BME280;57301;50.328;8.542;2023-06-19T05:14:12;98141.19;;;19.99;78.06
69971;BME280;57301;50.328;8.542;2023-06-19T05:16:40;98145.19;;;19.97;80.13
69971;BME280;57301;50.328;8.542;2023-06-19T05:19:07;98141.00;;;20.19;78.47
69971;BME280;57301;50.328;8.542;2023-06-19T05:21:34;98146.41;;;20.37;78.37
69971;BME280;57301;50.328;8.542;2023-06-19T05:24:01;98140.22;;;20.55;77.10
69971;BME280;57301;50.328;8.542;2023-06-19T05:26:30;98132.53;;;20.71;78.65
69971;BME280;57301;50.328;8.542;2023-06-19T05:28:57;98138.53;;;20.73;79.70
69971;BME280;57301;50.328;8.542;2023-06-19T05:31:23;98126.28;;;20.33;77.12
69971;BME280;57301;50.328;8.542;2023-06-19T05:33:50;98147.16;;;20.51;81.42
69971;BME280;57301;50.328;8.542;2023-06-19T05:36:16;98142.38;;;20.83;78.11
69971;BME280;57301;50.328;8.542;2023-06-19T05:38:43;98137.41;;;21.29;74.17
69971;BME280;57301;50.328;8.542;2023-06-19T05:41:09;98146.66;;;21.51;73.43
69971;BME280;57301;50.328;8.542;2023-06-19T05:43:36;98146.44;;;21.53;74.02
69971;BME280;57301;50.328;8.542;2023-06-19T05:46:02;98148.81;;;21.72;74.55
69971;BME280;57301;50.328;8.542;2023-06-19T05:48:29;98136.00;;;22.15;73.07
69971;BME280;57301;50.328;8.542;2023-06-19T05:50:55;98134.44;;;22.54;67.38
69971;BME280;57301;50.328;8.542;2023-06-19T05:53:22;98142.91;;;22.69;62.39
69971;BME280;57301;50.328;8.542;2023-06-19T05:55:48;98141.13;;;23.15;62.46
69971;BME280;57301;50.328;8.542;2023-06-19T05:58:16;98143.41;;;23.35;60.36
69971;BME280;57301;50.328;8.542;2023-06-19T06:00:46;98144.91;;;23.59;58.93
69971;BME280;57301;50.328;8.542;2023-06-19T06:03:13;98146.53;;;23.89;57.69
69971;BME280;57301;50.328;8.542;2023-06-19T06:05:40;98153.28;;;23.86;57.57
69971;BME280;57301;50.328;8.542;2023-06-19T06:08:06;98157.00;;;23.64;55.77
69971;BME280;57301;50.328;8.542;2023-06-19T06:10:33;98162.75;;;23.67;56.83
69971;BME280;57301;50.328;8.542;2023-06-19T06:12:59;98172.97;;;23.60;56.53
69971;BME280;57301;50.328;8.542;2023-06-19T06:15:26;98188.50;;;23.02;57.76
69971;BME280;57301;50.328;8.542;2023-06-19T06:17:52;98186.72;;;23.25;56.48
69971;BME280;57301;50.328;8.542;2023-06-19T06:20:19;98182.41;;;23.12;57.82
69971;BME280;57301;50.328;8.542;2023-06-19T06:22:45;98196.84;;;23.41;57.01
69971;BME280;57301;50.328;8.542;2023-06-19T06:25:12;98195.53;;;24.06;55.81
69971;BME280;57301;50.328;8.542;2023-06-19T06:27:40;98189.84;;;23.91;56.11
69971;BME280;57301;50.328;8.542;2023-06-19T06:30:06;98194.25;;;23.63;56.25
69971;BME280;57301;50.328;8.542;2023-06-19T06:32:33;98199.75;;;23.97;55.51
69971;BME280;57301;50.328;8.542;2023-06-19T06:35:00;98206.84;;;24.48;54.05
69971;BME280;57301;50.328;8.542;2023-06-19T06:37:27;98209.19;;;24.39;53.55
69971;BME280;57301;50.328;8.542;2023-06-19T06:39:53;98208.25;;;24.17;54.08
69971;BME280;57301;50.328;8.542;2023-06-19T06:42:20;98208.25;;;24.17;54.43
69971;BME280;57301;50.328;8.542;2023-06-19T06:44:46;98204.47;;;24.01;55.62
69971;BME280;57301;50.328;8.542;2023-06-19T06:47:13;98193.66;;;23.90;55.03
69971;BME280;57301;50.328;8.542;2023-06-19T06:49:40;98201.41;;;23.98;54.97
69971;BME280;57301;50.328;8.542;2023-06-19T06:52:07;98204.09;;;23.81;56.08
69971;BME280;57301;50.328;8.542;2023-06-19T06:54:33;98205.78;;;24.16;55.50
69971;BME280;57301;50.328;8.542;2023-06-19T06:57:00;98210.09;;;24.67;53.95
69971;BME280;57301;50.328;8.542;2023-06-19T06:59:27;98198.53;;;24.99;52.94
69971;BME280;57301;50.328;8.542;2023-06-19T07:01:57;98199.53;;;24.71;52.57
69971;BME280;57301;50.328;8.542;2023-06-19T07:04:23;98202.59;;;24.74;52.96
69971;BME280;57301;50.328;8.542;2023-06-19T07:06:50;98209.72;;;24.58;53.54
69971;BME280;57301;50.328;8.542;2023-06-19T07:09:17;98210.25;;;24.38;53.96
69971;BME280;57301;50.328;8.542;2023-06-19T07:11:44;98211.91;;;24.78;53.73
69971;BME280;57301;50.328;8.542;2023-06-19T07:14:10;98207.69;;;25.09;53.54
69971;BME280;57301;50.328;8.542;2023-06-19T07:16:37;98203.44;;;25.18;52.74
69971;BME280;57301;50.328;8.542;2023-06-19T07:19:03;98217.19;;;25.29;52.74
69971;BME280;57301;50.328;8.542;2023-06-19T07:21:30;98207.94;;;25.08;53.54
69971;BME280;57301;50.328;8.542;2023-06-19T07:23:57;98196.09;;;25.19;53.11
69971;BME280;57301;50.328;8.542;2023-06-19T07:26:24;98191.25;;;25.53;53.41
69971;BME280;57301;50.328;8.542;2023-06-19T07:28:50;98193.22;;;25.58;52.48
69971;BME280;57301;50.328;8.542;2023-06-19T07:31:16;98201.59;;;25.51;53.10
69971;BME280;57301;50.328;8.542;2023-06-19T07:33:43;98207.44;;;25.60;53.11
69971;BME280;57301;50.328;8.542;2023-06-19T07:36:09;98217.06;;;25.67;52.99
69971;BME280;57301;50.328;8.542;2023-06-19T07:38:41;98213.13;;;26.12;51.54
69971;BME280;57301;50.328;8.542;2023-06-19T07:41:09;98210.94;;;26.14;51.37
69971;BME280;57301;50.328;8.542;2023-06-19T07:43:37;98224.50;;;25.99;51.54
69971;BME280;57301;50.328;8.542;2023-06-19T07:46:04;98220.50;;;26.12;51.58
69971;BME280;57301;50.328;8.542;2023-06-19T07:48:30;98223.72;;;25.50;52.52
69971;BME280;57301;50.328;8.542;2023-06-19T07:50:57;98231.97;;;26.09;52.46
69971;BME280;57301;50.328;8.542;2023-06-19T07:53:23;98226.25;;;26.10;50.47
69971;BME280;57301;50.328;8.542;2023-06-19T07:55:50;98226.97;;;26.01;52.10
69971;BME280;57301;50.328;8.542;2023-06-19T07:58:16;98225.69;;;25.81;52.13
69971;BME280;57301;50.328;8.542;2023-06-19T08:00:43;98222.22;;;25.64;52.77
69971;BME280;57301;50.328;8.542;2023-06-19T08:03:10;98228.97;;;25.29;54.42
69971;BME280;57301;50.328;8.542;2023-06-19T08:05:37;98230.47;;;25.69;54.29
69971;BME280;57301;50.328;8.542;2023-06-19T08:08:04;98229.56;;;26.17;52.57
69971;BME280;57301;50.328;8.542;2023-06-19T08:10:30;98238.22;;;26.04;52.35
69971;BME280;57301;50.328;8.542;2023-06-19T08:12:57;98234.72;;;26.09;53.04
69971;BME280;57301;50.328;8.542;2023-06-19T08:15:26;98245.41;;;26.90;50.97
69971;BME280;57301;50.328;8.542;2023-06-19T08:17:53;98245.31;;;26.74;51.32
69971;BME280;57301;50.328;8.542;2023-06-19T08:20:20;98243.66;;;26.73;50.43
69971;BME280;57301;50.328;8.542;2023-06-19T08:22:48;98239.50;;;26.61;50.33
69971;BME280;57301;50.328;8.542;2023-06-19T08:25:15;98245.94;;;27.44;50.67
69971;BME280;57301;50.328;8.542;2023-06-19T08:27:41;98256.06;;;27.39;50.44
69971;BME280;57301;50.328;8.542;2023-06-19T08:30:08;98255.41;;;27.16;49.79
69971;BME280;57301;50.328;8.542;2023-06-19T08:32:34;98256.28;;;27.27;49.21
69971;BME280;57301;50.328;8.542;2023-06-19T08:35:01;98252.16;;;26.08;52.18
69971;BME280;57301;50.328;8.542;2023-06-19T08:37:29;98250.88;;;26.47;51.52
69971;BME280;57301;50.328;8.542;2023-06-19T08:39:55;98259.97;;;27.58;49.68
69971;BME280;57301;50.328;8.542;2023-06-19T08:42:22;98253.19;;;27.91;47.98
69971;BME280;57301;50.328;8.542;2023-06-19T08:44:49;98257.19;;;27.48;49.61
69971;BME280;57301;50.328;8.542;2023-06-19T08:47:16;98255.56;;;26.99;50.63
69971;BME280;57301;50.328;8.542;2023-06-19T08:49:42;98252.41;;;27.18;50.38
69971;BME280;57301;50.328;8.542;2023-06-19T08:52:10;98256.31;;;27.32;50.19
69971;BME280;57301;50.328;8.542;2023-06-19T08:54:36;98260.47;;;27.45;50.96
69971;BME280;57301;50.328;8.542;2023-06-19T08:57:10;98265.16;;;27.59;48.82
69971;BME280;57301;50.328;8.542;2023-06-19T08:59:38;98260.00;;;27.73;48.88
69971;BME280;57301;50.328;8.542;2023-06-19T09:02:06;98268.53;;;27.82;48.49
69971;BME280;57301;50.328;8.542;2023-06-19T09:04:32;98264.03;;;26.93;49.99
69971;BME280;57301;50.328;8.542;2023-06-19T09:07:03;98265.59;;;27.31;49.38
69971;BME280;57301;50.328;8.542;2023-06-19T09:09:30;98258.56;;;26.93;49.34
69971;BME280;57301;50.328;8.542;2023-06-19T09:12:00;98255.88;;;27.03;49.21
69971;BME280;57301;50.328;8.542;2023-06-19T09:14:44;98256.16;;;27.74;48.99
69971;BME280;57301;50.328;8.542;2023-06-19T09:17:14;98270.13;;;26.63;50.36
69971;BME280;57301;50.328;8.542;2023-06-19T09:19:51;98256.69;;;26.24;50.61
69971;BME280;57301;50.328;8.542;2023-06-19T09:22:20;98248.03;;;26.37;51.09
69971;BME280;57301;50.328;8.542;2023-06-19T09:24:47;98250.25;;;27.30;49.18
69971;BME280;57301;50.328;8.542;2023-06-19T09:27:17;98260.31;;;27.82;48.98
69971;BME280;57301;50.328;8.542;2023-06-19T09:29:49;98258.16;;;28.25;46.79
69971;BME280;57301;50.328;8.542;2023-06-19T09:32:26;98257.91;;;27.23;48.65
69971;BME280;57301;50.328;8.542;2023-06-19T09:34:56;98255.16;;;28.62;47.09
69971;BME280;57301;50.328;8.542;2023-06-19T09:37:27;98251.75;;;29.11;45.41
69971;BME280;57301;50.328;8.542;2023-06-19T09:40:02;98253.47;;;28.66;45.75
69971;BME280;57301;50.328;8.542;2023-06-19T09:42:39;98257.03;;;27.85;45.89
69971;BME280;57301;50.328;8.542;2023-06-19T09:45:07;98261.31;;;27.61;46.84
69971;BME280;57301;50.328;8.542;2023-06-19T09:47:42;98252.94;;;27.10;47.48
69971;BME280;57301;50.328;8.542;2023-06-19T09:50:14;98260.88;;;28.09;46.03
69971;BME280;57301;50.328;8.542;2023-06-19T09:52:42;98272.41;;;28.27;46.00
69971;BME280;57301;50.328;8.542;2023-06-19T09:55:11;98265.25;;;28.77;45.74
69971;BME280;57301;50.328;8.542;2023-06-19T09:57:41;98265.81;;;28.23;46.36
69971;BME280;57301;50.328;8.542;2023-06-19T10:00:09;98246.59;;;26.62;48.18
69971;BME280;57301;50.328;8.542;2023-06-19T10:02:43;98252.25;;;26.92;48.11
69971;BME280;57301;50.328;8.542;2023-06-19T10:05:10;98257.84;;;27.08;47.81
69971;BME280;57301;50.328;8.542;2023-06-19T10:07:43;98250.91;;;27.68;47.34
69971;BME280;57301;50.328;8.542;2023-06-19T10:10:12;98257.88;;;28.11;46.23
69971;BME280;57301;50.328;8.542;2023-06-19T10:12:49;98252.69;;;27.99;47.10
69971;BME280;57301;50.328;8.542;2023-06-19T10:17:59;98258.31;;;27.62;46.64
69971;BME280;57301;50.328;8.542;2023-06-19T10:20:34;98264.97;;;27.81;46.35
69971;BME280;57301;50.328;8.542;2023-06-19T10:23:14;98267.16;;;27.69;46.31
69971;BME280;57301;50.328;8.542;2023-06-19T10:25:47;98266.53;;;27.67;46.15
69971;BME280;57301;50.328;8.542;2023-06-19T10:28:22;98264.72;;;28.03;44.74
69971;BME280;57301;50.328;8.542;2023-06-19T10:31:06;98257.06;;;28.51;44.31
69971;BME280;57301;50.328;8.542;2023-06-19T10:33:35;98257.31;;;27.89;46.19
69971;BME280;57301;50.328;8.542;2023-06-19T10:36:22;98260.34;;;28.23;44.58
69971;BME280;57301;50.328;8.542;2023-06-19T10:38:49;98252.41;;;28.42;44.30
69971;BME280;57301;50.328;8.542;2023-06-19T10:41:17;98259.25;;;28.70;43.71
69971;BME280;57301;50.328;8.542;2023-06-19T10:46:33;98255.94;;;29.63;43.14
69971;BME280;57301;50.328;8.542;2023-06-19T10:49:04;98243.63;;;29.45;41.97
69971;BME280;57301;50.328;8.542;2023-06-19T10:51:34;98242.28;;;29.53;42.43
69971;BME280;57301;50.328;8.542;2023-06-19T10:54:01;98235.06;;;29.62;40.84
69971;BME280;57301;50.328;8.542;2023-06-19T10:56:28;98238.06;;;30.05;40.68
69971;BME280;57301;50.328;8.542;2023-06-19T10:59:10;98234.44;;;29.75;40.71
69971;BME280;57301;50.328;8.542;2023-06-19T11:01:40;98241.16;;;29.54;40.62
69971;BME280;57301;50.328;8.542;2023-06-19T11:04:09;98235.00;;;29.72;39.99
69971;BME280;57301;50.328;8.542;2023-06-19T11:06:37;98232.47;;;29.21;39.94
69971;BME280;57301;50.328;8.542;2023-06-19T11:09:06;98230.19;;;29.43;40.86
69971;BME280;57301;50.328;8.542;2023-06-19T11:11:47;98230.00;;;29.25;41.24
69971;BME280;57301;50.328;8.542;2023-06-19T11:14:16;98232.38;;;28.67;41.08
69971;BME280;57301;50.328;8.542;2023-06-19T11:16:46;98232.09;;;28.63;41.45
69971;BME280;57301;50.328;8.542;2023-06-19T11:19:18;98227.94;;;28.76;42.66
69971;BME280;57301;50.328;8.542;2023-06-19T11:21:47;98227.44;;;28.63;42.90
69971;BME280;57301;50.328;8.542;2023-06-19T11:24:15;98225.53;;;28.44;42.68
69971;BME280;57301;50.328;8.542;2023-06-19T11:26:43;98236.47;;;28.59;42.95
69971;BME280;57301;50.328;8.542;2023-06-19T11:29:26;98230.75;;;28.40;42.33
69971;BME280;57301;50.328;8.542;2023-06-19T11:32:05;98229.34;;;27.76;43.54
69971;BME280;57301;50.328;8.542;2023-06-19T11:34:34;98230.72;;;27.94;42.76
69971;BME280;57301;50.328;8.542;2023-06-19T11:37:14;98223.91;;;28.37;43.43
69971;BME280;57301;50.328;8.542;2023-06-19T11:39:45;98217.84;;;28.35;42.51
69971;BME280;57301;50.328;8.542;2023-06-19T11:42:12;98227.16;;;28.09;42.92
69971;BME280;57301;50.328;8.542;2023-06-19T11:44:54;98222.53;;;28.45;42.47
69971;BME280;57301;50.328;8.542;2023-06-19T11:47:21;98232.38;;;28.00;43.28
69971;BME280;57301;50.328;8.542;2023-06-19T11:49:48;98231.56;;;28.25;43.94
69971;BME280;57301;50.328;8.542;2023-06-19T11:52:16;98229.06;;;28.59;43.11
69971;BME280;57301;50.328;8.542;2023-06-19T11:54:43;98224.69;;;28.53;42.37
69971;BME280;57301;50.328;8.542;2023-06-19T11:57:10;98225.75;;;28.93;42.18
69971;BME280;57301;50.328;8.542;2023-06-19T11:59:40;98224.94;;;27.85;43.36
69971;BME280;57301;50.328;8.542;2023-06-19T12:02:07;98233.75;;;27.88;43.51
69971;BME280;57301;50.328;8.542;2023-06-19T12:04:35;98232.38;;;28.51;42.91
69971;BME280;57301;50.328;8.542;2023-06-19T12:07:02;98235.91;;;28.72;42.30
69971;BME280;57301;50.328;8.542;2023-06-19T12:09:30;98223.59;;;27.88;43.48
69971;BME280;57301;50.328;8.542;2023-06-19T12:12:01;98223.84;;;27.87;43.27
69971;BME280;57301;50.328;8.542;2023-06-19T12:14:27;98217.84;;;28.30;42.91
69971;BME280;57301;50.328;8.542;2023-06-19T12:16:54;98217.09;;;29.20;40.56
69971;BME280;57301;50.328;8.542;2023-06-19T12:19:20;98211.78;;;29.39;43.74
69971;BME280;57301;50.328;8.542;2023-06-19T12:21:47;98214.13;;;30.05;41.71
69971;BME280;57301;50.328;8.542;2023-06-19T12:24:13;98214.94;;;30.11;39.30
69971;BME280;57301;50.328;8.542;2023-06-19T12:26:40;98212.00;;;30.89;38.25
69971;BME280;57301;50.328;8.542;2023-06-19T12:29:07;98205.69;;;30.31;38.76
69971;BME280;57301;50.328;8.542;2023-06-19T12:31:34;98203.84;;;30.50;38.65
69971;BME280;57301;50.328;8.542;2023-06-19T12:34:03;98206.41;;;30.12;38.86
69971;BME280;57301;50.328;8.542;2023-06-19T12:36:50;98202.09;;;30.35;40.09
69971;BME280;57301;50.328;8.542;2023-06-19T12:39:17;98208.31;;;30.75;37.85
69971;BME280;57301;50.328;8.542;2023-06-19T12:41:43;98204.09;;;30.54;36.71
69971;BME280;57301;50.328;8.542;2023-06-19T12:44:11;98208.97;;;30.91;38.23
69971;BME280;57301;50.328;8.542;2023-06-19T12:46:42;98203.44;;;31.15;38.52
69971;BME280;57301;50.328;8.542;2023-06-19T12:49:14;98200.69;;;31.39;38.19
69971;BME280;57301;50.328;8.542;2023-06-19T12:51:47;98200.00;;;31.66;35.61
69971;BME280;57301;50.328;8.542;2023-06-19T12:54:24;98210.41;;;30.25;37.57
69971;BME280;57301;50.328;8.542;2023-06-19T12:59:50;98204.09;;;30.83;35.89
69971;BME280;57301;50.328;8.542;2023-06-19T13:02:17;98211.91;;;30.07;37.42
69971;BME280;57301;50.328;8.542;2023-06-19T13:04:44;98202.53;;;31.24;35.41
69971;BME280;57301;50.328;8.542;2023-06-19T13:07:10;98215.47;;;31.43;34.69
69971;BME280;57301;50.328;8.542;2023-06-19T13:09:37;98207.72;;;30.49;35.51
69971;BME280;57301;50.328;8.542;2023-06-19T13:12:04;98215.03;;;29.51;38.37
69971;BME280;57301;50.328;8.542;2023-06-19T13:14:30;98203.28;;;29.40;37.76
69971;BME280;57301;50.328;8.542;2023-06-19T13:16:58;98206.09;;;29.80;37.39